Main page
METAR-TAF:

Airports :

Hanover, Germany

Hannover Airport

latitude: 52-28N, longitude: 009-41E, elevation: 56 m

Current weather observation

The report was made 26 minutes ago, at 02:50 UTC
Wind 3 kt from the South/Southeast
Temperature 5°C
Humidity 100%
Pressure 1016 hPa
Visibility 10 km or more
no clouds below 1500 m and no cumulonimbus

METAR: EDDV 300250Z 15003KT CAVOK 05/05 Q1016

Time: 05:16 (03:16 UTC)

Forecast

The report was made 4 hours and 16 minutes ago, at 23:00 UTC
Forecast valid from 30 at 00 UTC to 30 at 24 UTC
Wind 2 kt from variable directions
Visibility 10 km or more
Scattered clouds at a height of 4000 ft
Becoming
from 30 at 12 UTC to 30 at 15 UTC
Wind 8 kt from the North/Northwest

TAF: EDDV 292300Z 3000/3024 VRB02KT 9999 SCT040 BECMG 3012/3015 34008KT

METAR-TAF

Weather observations and forecasts of more than 4000 airports (METAR and TAF reports).

The available stations are represented by yellow and red dots on the map.

Hover mouse over dot to see the name of the station.

Then click to see weather observations and forecasts.

To change the map : click on the green buttons with a black cross to zoom in, on the green button with a dash to zoom out, or on the green arrows for adjacent maps.


METAR-TAF: